Niagara Falls International Airport Niagara Falls US
ICAO: KIAG
IATA: IAG
Category: Medium
Scheduled Services: No

Elevation: 589 ft
TransAlt. 18000 ft.

Airport Communications:
BUFFALO APP/DEP:126.5
ATIS:120.8
CLNC DEL:119.25
CTAF:118.5
GND:121.7
ANG OPS:26.19
914 AW COMD POST:34.002
PTD:37.22
TWR:118.5
UNICOM:122.95

KIAG Zoom In..

If you have problems with the map follow the link
https://www.worldairports.se/pages/airport.php?
ICAO=KIAG

Runways:

(A) RW 06 length 5188 ft width 150 ft
---- / hdg 60

(B) RW 10L length 9829 ft width 150 ft
---- / hdg 100

(C) RW 10R length 3973 ft width 75 ft
---- / hdg 100

(D) RW 24 length 5188 ft width 150 ft
---- / hdg 240

(E) RW 28L length 3973 ft width 75 ft
---- / hdg 280

(F) RW 28R length 9829 ft width 150 ft
ILS 110.10 / hdg 280

Location; KIAG
Day. 28 / Time. 13.53 Zulu
* Altimeter: 29.94
* Temperature: -01° c. -30.2°f.
* Wind from: 300° Speed 13 kn.
Dewpoint: -04° c.
Visibility: 7 Statute Miles.
Clouds: Broken 2400 ft.
Clouds: Overcast 4300 ft.

KIAG 281353Z 30013KT 7SM BKN024 OVC043 M01/M04 A2994 RMK AO2 SLP152 T10061039


Wind From 300°
Speed 13 kn.

 
 
jpsmedia worldairports.se 2020   terms of use